Time;durP1;ratioP1;P1;durP2;ratioP2;P2;SDS_P1;SDS_P2;PMS_P1;PMS_P2;Temp;Humidity;BMP_temperature;BMP_pressure;BME280_temperature;BME280_humidity;BME280_pressure;Samples;Min_cycle;Max_cycle;Signal;HPM_P1;HPM_P2
2023/08/14 00:00:32;;;;;;;11.73;6.25;;;;;;;;;;5012173;28;20183;-71
2023/08/14 00:02:57;;;;;;;9.43;6.10;;;;;;;;;;5028443;28;20239;-71
2023/08/14 00:05:22;;;;;;;10.85;6.10;;;;;;;;;;5030099;28;20210;-71
2023/08/14 00:07:48;;;;;;;11.90;5.95;;;;;;;;;;5003629;28;20202;-71
2023/08/14 00:10:13;;;;;;;8.80;6.00;;;;;;;;;;5018748;28;20222;-71
2023/08/14 00:12:39;;;;;;;9.52;6.18;;;;;;;;;;5028611;28;20226;-71
2023/08/14 00:15:05;;;;;;;10.10;6.72;;;;;;;;;;5031740;28;20193;-72
2023/08/14 00:17:30;;;;;;;8.93;6.10;;;;;;;;;;5027872;28;20604;-71
2023/08/14 00:19:56;;;;;;;8.65;5.63;;;;;;;;;;5030838;28;20190;-71
2023/08/14 00:22:21;;;;;;;9.68;5.97;;;;;;;;;;5026718;28;20190;-71
2023/08/14 00:24:46;;;;;;;9.77;6.93;;;;;;;;;;5026670;28;20219;-71
2023/08/14 00:27:12;;;;;;;9.18;6.18;;;;;;;;;;5030344;28;20486;-71
2023/08/14 00:29:37;;;;;;;10.18;6.07;;;;;;;;;;5024377;28;20229;-71
2023/08/14 00:32:03;;;;;;;10.27;5.38;;;;;;;;;;5031260;28;20186;-71
2023/08/14 00:34:28;;;;;;;9.25;5.68;;;;;;;;;;5030036;28;20654;-71
2023/08/14 00:36:53;;;;;;;11.68;5.78;;;;;;;;;;5028289;28;20611;-72
2023/08/14 00:39:19;;;;;;;7.97;5.32;;;;;;;;;;5030389;28;20198;-71
2023/08/14 00:41:44;;;;;;;8.18;5.07;;;;;;;;;;5028130;28;20224;-71
2023/08/14 00:44:10;;;;;;;10.30;5.22;;;;;;;;;;5012133;28;20239;-71
2023/08/14 00:46:35;;;;;;;6.43;5.07;;;;;;;;;;5024275;28;20185;-71
2023/08/14 00:49:00;;;;;;;8.95;4.97;;;;;;;;;;5016355;28;20323;-71
2023/08/14 00:51:27;;;;;;;9.63;5.18;;;;;;;;;;5028609;28;20197;-71
2023/08/14 00:53:53;;;;;;;10.32;5.68;;;;;;;;;;5024509;28;20198;-71
2023/08/14 00:56:19;;;;;;;8.55;5.20;;;;;;;;;;5022046;28;20178;-72
2023/08/14 00:58:46;;;;;;;10.13;5.30;;;;;;;;;;5025910;28;20183;-72
2023/08/14 01:01:12;;;;;;;7.55;4.80;;;;;;;;;;5022496;28;20269;-71
2023/08/14 01:03:37;;;;;;;8.10;4.97;;;;;;;;;;5027539;28;20278;-71
2023/08/14 01:06:03;;;;;;;7.82;4.68;;;;;;;;;;5011174;28;20179;-71
2023/08/14 01:08:28;;;;;;;8.73;5.30;;;;;;;;;;5025493;28;20222;-72
2023/08/14 01:10:59;;;;;;;9.57;5.15;;;;;;;;;;5032918;28;20672;-71
2023/08/14 01:13:40;;;;;;;7.00;5.32;;;;;;;;;;5028215;28;20221;-71
2023/08/14 01:16:17;;;;;;;8.25;5.43;;;;;;;;;;5023597;28;20206;-71
2023/08/14 01:18:46;;;;;;;7.97;5.38;;;;;;;;;;5013449;28;20221;-72
2023/08/14 01:21:11;;;;;;;9.48;5.60;;;;;;;;;;5029900;28;20679;-71
2023/08/14 01:23:52;;;;;;;11.35;5.43;;;;;;;;;;5027949;28;20194;-71
2023/08/14 01:26:18;;;;;;;7.32;5.03;;;;;;;;;;5018380;28;20198;-73
2023/08/14 01:28:44;;;;;;;7.90;5.35;;;;;;;;;;5026732;28;20268;-71
2023/08/14 01:31:10;;;;;;;8.15;5.10;;;;;;;;;;5036097;28;20610;-71
2023/08/14 01:33:35;;;;;;;9.80;5.00;;;;;;;;;;5023007;28;20294;-71
2023/08/14 01:36:19;;;;;;;6.43;5.05;;;;;;;;;;5008723;28;20526;-71
2023/08/14 01:38:51;;;;;;;7.30;5.28;;;;;;;;;;5008626;28;20205;-71
2023/08/14 01:41:28;;;;;;;11.20;5.63;;;;;;;;;;5022408;28;20210;-71
2023/08/14 01:43:58;;;;;;;6.35;4.80;;;;;;;;;;5013486;28;20244;-71
2023/08/14 01:46:25;;;;;;;8.18;4.68;;;;;;;;;;5022836;28;20190;-71
2023/08/14 01:48:54;;;;;;;8.52;5.10;;;;;;;;;;5021487;28;20237;-71
2023/08/14 01:51:20;;;;;;;10.15;6.18;;;;;;;;;;5024632;28;20552;-71
2023/08/14 01:53:47;;;;;;;6.22;5.15;;;;;;;;;;5015986;28;20182;-71
2023/08/14 01:56:12;;;;;;;11.98;5.70;;;;;;;;;;5023042;28;20209;-71
2023/08/14 01:58:38;;;;;;;12.18;5.72;;;;;;;;;;5004352;28;20712;-71
2023/08/14 02:01:03;;;;;;;8.52;5.20;;;;;;;;;;5028060;28;20620;-71
2023/08/14 02:03:29;;;;;;;7.72;5.05;;;;;;;;;;5025738;28;20221;-71
2023/08/14 02:05:55;;;;;;;9.23;4.80;;;;;;;;;;5021933;28;20579;-71
2023/08/14 02:08:21;;;;;;;4.75;4.25;;;;;;;;;;5031847;28;20190;-72
2023/08/14 02:10:46;;;;;;;8.02;5.32;;;;;;;;;;5027582;28;20296;-72
2023/08/14 02:13:12;;;;;;;8.30;5.10;;;;;;;;;;5029364;28;20640;-71
2023/08/14 02:15:37;;;;;;;7.88;5.72;;;;;;;;;;5028266;28;20226;-71
2023/08/14 02:18:03;;;;;;;6.40;5.13;;;;;;;;;;5028014;28;20220;-71
2023/08/14 02:20:28;;;;;;;9.38;5.55;;;;;;;;;;5010084;28;20188;-71
2023/08/14 02:22:54;;;;;;;7.80;5.10;;;;;;;;;;5028359;28;20189;-71
2023/08/14 02:25:19;;;;;;;6.78;4.97;;;;;;;;;;5019406;28;20206;-71
2023/08/14 02:27:45;;;;;;;10.25;6.30;;;;;;;;;;5029434;28;20236;-71
2023/08/14 02:30:10;;;;;;;8.10;5.70;;;;;;;;;;5030841;28;20205;-71
2023/08/14 02:32:36;;;;;;;9.75;6.15;;;;;;;;;;5037364;28;20190;-71
2023/08/14 02:35:01;;;;;;;10.20;5.80;;;;;;;;;;5027703;28;20570;-71
2023/08/14 02:37:27;;;;;;;7.63;5.45;;;;;;;;;;5029295;28;20190;-71
2023/08/14 02:39:52;;;;;;;8.43;5.35;;;;;;;;;;5028675;28;20269;-71
2023/08/14 02:42:19;;;;;;;10.82;5.90;;;;;;;;;;5027498;28;20194;-72
2023/08/14 02:44:45;;;;;;;9.23;5.35;;;;;;;;;;5028683;28;20674;-72
2023/08/14 02:47:11;;;;;;;7.32;4.72;;;;;;;;;;5027605;28;20197;-72
2023/08/14 02:49:36;;;;;;;9.07;4.72;;;;;;;;;;5026316;28;20259;-72
2023/08/14 02:52:02;;;;;;;7.18;4.75;;;;;;;;;;5029955;28;20243;-72
2023/08/14 02:54:27;;;;;;;6.22;4.72;;;;;;;;;;5027332;28;20631;-72
2023/08/14 02:56:53;;;;;;;4.47;3.88;;;;;;;;;;5032592;28;20197;-72
2023/08/14 02:59:19;;;;;;;5.25;4.65;;;;;;;;;;5027600;28;20193;-71
2023/08/14 03:01:44;;;;;;;4.97;4.40;;;;;;;;;;5025368;28;20200;-71
2023/08/14 03:04:10;;;;;;;4.90;4.40;;;;;;;;;;5029343;28;20274;-71
2023/08/14 03:06:36;;;;;;;9.43;4.70;;;;;;;;;;5028065;28;20506;-71
2023/08/14 03:09:02;;;;;;;10.25;5.10;;;;;;;;;;5032297;28;20591;-71
2023/08/14 03:11:27;;;;;;;7.55;4.82;;;;;;;;;;5026840;28;20201;-73
2023/08/14 03:13:53;;;;;;;8.48;5.68;;;;;;;;;;5032434;28;20185;-72
2023/08/14 03:16:19;;;;;;;5.78;4.93;;;;;;;;;;5026608;28;20190;-72
2023/08/14 03:18:44;;;;;;;5.70;4.55;;;;;;;;;;5031779;28;20198;-72
2023/08/14 03:21:09;;;;;;;7.53;4.25;;;;;;;;;;5024746;28;20676;-72
2023/08/14 03:23:35;;;;;;;4.85;3.78;;;;;;;;;;5032081;28;20187;-71
2023/08/14 03:26:02;;;;;;;6.85;4.03;;;;;;;;;;5031181;28;20194;-72
2023/08/14 03:28:27;;;;;;;5.63;4.15;;;;;;;;;;5019015;28;20691;-71
2023/08/14 03:30:52;;;;;;;6.90;4.32;;;;;;;;;;5034061;28;20229;-71
2023/08/14 03:33:18;;;;;;;6.05;4.45;;;;;;;;;;5013366;28;20179;-71
2023/08/14 03:35:43;;;;;;;6.20;4.70;;;;;;;;;;5022197;28;20209;-71
2023/08/14 03:38:09;;;;;;;5.70;4.47;;;;;;;;;;5030669;28;20189;-71
2023/08/14 03:40:34;;;;;;;11.23;4.90;;;;;;;;;;5020187;28;20190;-71
2023/08/14 03:42:59;;;;;;;5.95;4.03;;;;;;;;;;5032000;28;20252;-71
2023/08/14 03:45:25;;;;;;;7.53;4.35;;;;;;;;;;5026901;28;20194;-71
2023/08/14 03:47:50;;;;;;;6.85;4.50;;;;;;;;;;5031808;28;20197;-71
2023/08/14 03:50:16;;;;;;;11.32;4.65;;;;;;;;;;5015644;28;20222;-71
2023/08/14 03:52:41;;;;;;;6.18;4.70;;;;;;;;;;5024732;28;20186;-71
2023/08/14 03:55:08;;;;;;;8.57;5.20;;;;;;;;;;5022284;28;20194;-71
2023/08/14 03:57:33;;;;;;;7.30;4.97;;;;;;;;;;5031313;28;20186;-71
2023/08/14 03:59:58;;;;;;;7.07;4.85;;;;;;;;;;5041517;28;20509;-71
2023/08/14 04:02:24;;;;;;;7.13;5.35;;;;;;;;;;5031077;28;20374;-71
2023/08/14 04:04:49;;;;;;;9.52;5.43;;;;;;;;;;5030369;28;20193;-71
2023/08/14 04:07:15;;;;;;;12.48;6.25;;;;;;;;;;5030563;28;20482;-71
2023/08/14 04:09:40;;;;;;;9.82;6.35;;;;;;;;;;5029632;28;20314;-71
2023/08/14 04:12:06;;;;;;;8.45;6.38;;;;;;;;;;5031067;28;20190;-71
2023/08/14 04:14:32;;;;;;;10.40;6.25;;;;;;;;;;5031043;28;20553;-71
2023/08/14 04:16:58;;;;;;;10.88;6.32;;;;;;;;;;5028407;28;20206;-71
2023/08/14 04:19:23;;;;;;;10.30;5.97;;;;;;;;;;5031170;28;20193;-72
2023/08/14 04:21:49;;;;;;;10.35;6.13;;;;;;;;;;5024527;28;20281;-71
2023/08/14 04:24:14;;;;;;;8.63;6.35;;;;;;;;;;5017955;28;20188;-71
2023/08/14 04:26:40;;;;;;;8.50;6.50;;;;;;;;;;5028934;28;20651;-71
2023/08/14 04:29:07;;;;;;;9.48;7.05;;;;;;;;;;5024776;28;20206;-71
2023/08/14 04:31:34;;;;;;;11.70;6.60;;;;;;;;;;5034041;28;20273;-71
2023/08/14 04:34:00;;;;;;;13.48;7.28;;;;;;;;;;5020864;28;20743;-71
2023/08/14 04:36:25;;;;;;;9.82;7.20;;;;;;;;;;5010827;28;20221;-71
2023/08/14 04:38:50;;;;;;;10.88;7.63;;;;;;;;;;5029995;28;20190;-71
2023/08/14 04:41:16;;;;;;;9.77;7.13;;;;;;;;;;5030391;28;20197;-71
2023/08/14 04:43:41;;;;;;;9.90;6.85;;;;;;;;;;5029939;28;20689;-70
2023/08/14 04:46:11;;;;;;;11.10;6.93;;;;;;;;;;5018206;28;20198;-72
2023/08/14 04:48:37;;;;;;;11.15;6.90;;;;;;;;;;5027852;28;20182;-71
2023/08/14 04:51:04;;;;;;;9.15;6.68;;;;;;;;;;5019754;28;20201;-71
2023/08/14 04:53:30;;;;;;;8.55;5.85;;;;;;;;;;5017452;28;20696;-71
2023/08/14 04:55:55;;;;;;;8.18;5.75;;;;;;;;;;5023211;28;20222;-71
2023/08/14 04:58:20;;;;;;;10.75;6.05;;;;;;;;;;5022974;28;20204;-71
2023/08/14 05:00:46;;;;;;;5.82;5.22;;;;;;;;;;5015560;28;20348;-71
2023/08/14 05:03:11;;;;;;;7.15;5.50;;;;;;;;;;5014422;28;20673;-72
2023/08/14 05:05:36;;;;;;;8.85;5.10;;;;;;;;;;5023655;28;20276;-71
2023/08/14 05:08:02;;;;;;;8.68;5.47;;;;;;;;;;5024415;28;20193;-71
2023/08/14 05:10:27;;;;;;;8.73;4.78;;;;;;;;;;5014224;28;20292;-71
2023/08/14 05:12:54;;;;;;;10.65;4.82;;;;;;;;;;5030593;28;20186;-71
2023/08/14 05:15:19;;;;;;;8.13;5.72;;;;;;;;;;5026388;28;20673;-71
2023/08/14 05:17:45;;;;;;;8.38;6.05;;;;;;;;;;5029333;28;20222;-72
2023/08/14 05:20:10;;;;;;;9.93;6.15;;;;;;;;;;5027568;28;20182;-72
2023/08/14 05:22:36;;;;;;;14.52;6.40;;;;;;;;;;5018264;28;20182;-72
2023/08/14 05:25:01;;;;;;;10.85;5.45;;;;;;;;;;5027354;28;20218;-71
2023/08/14 05:27:26;;;;;;;8.45;6.97;;;;;;;;;;5016073;28;20281;-72
2023/08/14 05:29:52;;;;;;;10.98;6.63;;;;;;;;;;5030903;28;20297;-72
2023/08/14 05:32:18;;;;;;;9.55;7.00;;;;;;;;;;5026486;28;20691;-71
2023/08/14 05:34:43;;;;;;;9.25;7.15;;;;;;;;;;5015375;28;20245;-72
2023/08/14 05:37:08;;;;;;;13.45;8.27;;;;;;;;;;5011471;28;20226;-73
2023/08/14 05:39:34;;;;;;;13.52;8.77;;;;;;;;;;5010094;28;20581;-72
2023/08/14 05:41:59;;;;;;;16.05;8.73;;;;;;;;;;5010131;28;20205;-71
2023/08/14 05:44:24;;;;;;;20.10;10.63;;;;;;;;;;5016409;28;20708;-71
2023/08/14 05:46:50;;;;;;;15.85;10.23;;;;;;;;;;5017567;28;20873;-72
2023/08/14 05:49:16;;;;;;;16.10;10.43;;;;;;;;;;5030897;28;20222;-72
2023/08/14 05:51:41;;;;;;;16.23;10.05;;;;;;;;;;5011806;28;20194;-73
2023/08/14 05:54:07;;;;;;;18.27;11.50;;;;;;;;;;5030316;28;20273;-72
2023/08/14 05:56:32;;;;;;;20.17;12.32;;;;;;;;;;5021971;28;20258;-73
2023/08/14 05:58:57;;;;;;;19.63;11.18;;;;;;;;;;5019835;28;20186;-73
2023/08/14 06:01:23;;;;;;;18.75;11.75;;;;;;;;;;5024244;28;20217;-73
2023/08/14 06:03:49;;;;;;;16.48;11.90;;;;;;;;;;5020860;28;20263;-72
2023/08/14 06:06:15;;;;;;;17.48;11.90;;;;;;;;;;5019911;28;20241;-72
2023/08/14 06:08:41;;;;;;;16.60;11.30;;;;;;;;;;5029243;28;20198;-73
2023/08/14 06:11:06;;;;;;;18.83;11.98;;;;;;;;;;5022727;28;20190;-72
2023/08/14 06:13:32;;;;;;;15.85;11.70;;;;;;;;;;5025577;28;20293;-71
2023/08/14 06:15:58;;;;;;;16.88;11.35;;;;;;;;;;5029048;28;20666;-72
2023/08/14 06:18:24;;;;;;;15.13;11.43;;;;;;;;;;5019540;28;20626;-73
2023/08/14 06:20:51;;;;;;;13.73;10.60;;;;;;;;;;5012633;28;20270;-73
2023/08/14 06:23:16;;;;;;;16.98;10.30;;;;;;;;;;5023374;28;20198;-72
2023/08/14 06:25:42;;;;;;;14.43;10.30;;;;;;;;;;5026702;28;20182;-73
2023/08/14 06:28:07;;;;;;;18.25;10.45;;;;;;;;;;5001215;28;20217;-72
2023/08/14 06:30:33;;;;;;;13.65;9.88;;;;;;;;;;5036221;28;20350;-73
2023/08/14 06:32:58;;;;;;;17.10;10.80;;;;;;;;;;5029725;28;20191;-72
2023/08/14 06:35:24;;;;;;;14.93;10.60;;;;;;;;;;5034067;28;20193;-73
2023/08/14 06:37:50;;;;;;;16.52;11.07;;;;;;;;;;5025661;28;20266;-72
2023/08/14 06:40:15;;;;;;;15.88;11.35;;;;;;;;;;5018641;28;20265;-74
2023/08/14 06:42:41;;;;;;;19.83;11.80;;;;;;;;;;5005714;28;20710;-71
2023/08/14 06:45:07;;;;;;;17.10;12.18;;;;;;;;;;5026763;28;20665;-71
2023/08/14 06:47:32;;;;;;;18.17;11.00;;;;;;;;;;5029933;28;20194;-73
2023/08/14 06:49:57;;;;;;;13.65;9.63;;;;;;;;;;5036537;28;20214;-73
2023/08/14 06:52:23;;;;;;;17.20;10.98;;;;;;;;;;5030759;28;20193;-72
2023/08/14 06:54:48;;;;;;;15.43;10.43;;;;;;;;;;5000710;28;20280;-71
2023/08/14 06:57:14;;;;;;;16.67;10.02;;;;;;;;;;5019118;28;20195;-72
2023/08/14 06:59:39;;;;;;;14.98;9.27;;;;;;;;;;5028198;28;20411;-74
2023/08/14 07:02:05;;;;;;;16.85;10.48;;;;;;;;;;5032440;28;20270;-72
2023/08/14 07:04:30;;;;;;;14.55;10.05;;;;;;;;;;5032197;28;20197;-72
2023/08/14 07:06:55;;;;;;;16.40;9.38;;;;;;;;;;5027476;28;20589;-71
2023/08/14 07:09:21;;;;;;;18.98;10.52;;;;;;;;;;5024053;28;20214;-74
2023/08/14 07:11:47;;;;;;;18.92;10.15;;;;;;;;;;5027278;28;20640;-72
2023/08/14 07:14:12;;;;;;;16.40;10.73;;;;;;;;;;5021731;28;20248;-72
2023/08/14 07:16:37;;;;;;;16.60;10.05;;;;;;;;;;5021709;28;20303;-71
2023/08/14 07:19:03;;;;;;;18.13;9.52;;;;;;;;;;5032017;28;20509;-71
2023/08/14 07:21:29;;;;;;;17.83;10.48;;;;;;;;;;5027331;28;20299;-72
2023/08/14 07:23:55;;;;;;;17.88;9.90;;;;;;;;;;5029547;28;20205;-70
2023/08/14 07:26:20;;;;;;;17.70;10.23;;;;;;;;;;5028778;28;20199;-72
2023/08/14 07:28:45;;;;;;;13.60;9.35;;;;;;;;;;5026610;28;20205;-72
2023/08/14 07:31:11;;;;;;;15.45;9.68;;;;;;;;;;5039050;28;20190;-72
2023/08/14 07:33:36;;;;;;;14.05;9.73;;;;;;;;;;5018243;28;20201;-72
2023/08/14 07:36:03;;;;;;;18.55;9.18;;;;;;;;;;5031777;28;20217;-71
2023/08/14 07:38:29;;;;;;;16.85;10.25;;;;;;;;;;5029794;28;20663;-71
2023/08/14 07:40:55;;;;;;;14.15;9.55;;;;;;;;;;5020915;28;20186;-71
2023/08/14 07:43:21;;;;;;;15.52;10.43;;;;;;;;;;5027682;28;20253;-71
2023/08/14 07:45:47;;;;;;;13.27;7.88;;;;;;;;;;5040496;28;20653;-71
2023/08/14 07:48:12;;;;;;;16.95;8.93;;;;;;;;;;5026563;28;20198;-72
2023/08/14 07:50:38;;;;;;;13.43;8.70;;;;;;;;;;5032510;28;20283;-71
2023/08/14 07:53:03;;;;;;;13.15;8.65;;;;;;;;;;5012471;28;20670;-72
2023/08/14 07:55:29;;;;;;;16.40;8.43;;;;;;;;;;5019894;28;20194;-71
2023/08/14 07:57:54;;;;;;;15.20;7.95;;;;;;;;;;5029464;28;20194;-72
2023/08/14 08:00:20;;;;;;;12.00;7.07;;;;;;;;;;5030823;28;20182;-71
2023/08/14 08:02:46;;;;;;;13.73;7.70;;;;;;;;;;5029417;28;20198;-71
2023/08/14 08:05:11;;;;;;;12.82;6.95;;;;;;;;;;5013054;28;20185;-72
2023/08/14 08:07:37;;;;;;;14.65;6.78;;;;;;;;;;5031724;28;20201;-71
2023/08/14 08:10:02;;;;;;;12.80;6.72;;;;;;;;;;5031793;28;20220;-73
2023/08/14 08:12:28;;;;;;;10.85;5.82;;;;;;;;;;5029256;28;20190;-72
2023/08/14 08:14:53;;;;;;;11.80;5.25;;;;;;;;;;5032066;28;20186;-73
2023/08/14 08:17:20;;;;;;;10.27;4.65;;;;;;;;;;5022693;28;20251;-72
2023/08/14 08:19:46;;;;;;;6.88;4.55;;;;;;;;;;5019342;28;20191;-73
2023/08/14 08:22:12;;;;;;;9.75;5.25;;;;;;;;;;5026905;28;20589;-71
2023/08/14 08:24:37;;;;;;;9.48;4.57;;;;;;;;;;5014499;28;20183;-71
2023/08/14 08:27:03;;;;;;;9.93;5.00;;;;;;;;;;5020187;28;20770;-72
2023/08/14 08:29:28;;;;;;;11.05;4.70;;;;;;;;;;5028041;28;20256;-71
2023/08/14 08:31:53;;;;;;;13.82;5.38;;;;;;;;;;5031552;28;20202;-71
2023/08/14 08:34:19;;;;;;;11.05;4.85;;;;;;;;;;5025712;28;20203;-71
2023/08/14 08:36:44;;;;;;;14.15;5.60;;;;;;;;;;5016534;28;20213;-71
2023/08/14 08:39:09;;;;;;;11.25;4.75;;;;;;;;;;5028740;28;20222;-71
2023/08/14 08:41:38;;;;;;;7.63;4.55;;;;;;;;;;5030989;28;20209;-71
2023/08/14 08:44:10;;;;;;;6.25;4.15;;;;;;;;;;5021439;28;20222;-73
2023/08/14 08:46:37;;;;;;;10.50;4.38;;;;;;;;;;5020120;28;20526;-72
2023/08/14 08:49:07;;;;;;;9.63;4.15;;;;;;;;;;5017525;28;20304;-73
2023/08/14 08:51:38;;;;;;;11.32;4.38;;;;;;;;;;5029220;28;20739;-73
2023/08/14 08:54:04;;;;;;;8.48;4.65;;;;;;;;;;5022712;28;20672;-72
2023/08/14 08:56:29;;;;;;;9.45;3.90;;;;;;;;;;5029328;28;20649;-73
2023/08/14 08:58:58;;;;;;;8.27;4.45;;;;;;;;;;5030104;28;20178;-73
2023/08/14 09:01:24;;;;;;;9.55;4.22;;;;;;;;;;5029137;28;20182;-72
2023/08/14 09:03:49;;;;;;;9.95;4.43;;;;;;;;;;5031483;28;20200;-73
2023/08/14 09:06:15;;;;;;;11.00;4.00;;;;;;;;;;5013179;28;20275;-72
2023/08/14 09:08:40;;;;;;;10.20;4.07;;;;;;;;;;5018493;28;20292;-73
2023/08/14 09:11:06;;;;;;;9.57;3.83;;;;;;;;;;5030879;28;20198;-73
2023/08/14 09:13:31;;;;;;;11.30;4.30;;;;;;;;;;5016775;28;20196;-71
2023/08/14 09:15:57;;;;;;;11.02;4.93;;;;;;;;;;5032081;28;20186;-72
2023/08/14 09:18:22;;;;;;;10.13;4.18;;;;;;;;;;5029887;28;20304;-72
2023/08/14 09:20:47;;;;;;;9.93;4.07;;;;;;;;;;5029749;28;20193;-72
2023/08/14 09:23:13;;;;;;;9.82;4.18;;;;;;;;;;5028238;28;20519;-73
2023/08/14 09:25:44;;;;;;;8.73;3.67;;;;;;;;;;5028758;28;20666;-71
2023/08/14 09:28:10;;;;;;;12.05;4.45;;;;;;;;;;5029210;28;20229;-72
2023/08/14 09:30:37;;;;;;;6.55;3.38;;;;;;;;;;5038238;28;20233;-72
2023/08/14 09:33:07;;;;;;;8.02;3.13;;;;;;;;;;5028060;28;20190;-70
2023/08/14 09:35:33;;;;;;;6.40;3.22;;;;;;;;;;5021817;28;20210;-71
2023/08/14 09:37:59;;;;;;;8.45;3.47;;;;;;;;;;5020096;28;20199;-72
2023/08/14 09:40:24;;;;;;;7.45;2.78;;;;;;;;;;5029101;28;20182;-72
2023/08/14 09:42:50;;;;;;;6.75;2.47;;;;;;;;;;5019202;28;20234;-73
2023/08/14 09:45:17;;;;;;;6.13;2.83;;;;;;;;;;5028481;28;20645;-72
2023/08/14 09:47:44;;;;;;;9.85;3.75;;;;;;;;;;5021124;28;20198;-70
2023/08/14 09:50:12;;;;;;;9.43;3.20;;;;;;;;;;5025809;28;20204;-71
2023/08/14 09:52:39;;;;;;;9.77;3.55;;;;;;;;;;5022383;28;20198;-72
2023/08/14 09:55:05;;;;;;;7.88;3.15;;;;;;;;;;5029326;28;20493;-71
2023/08/14 09:57:31;;;;;;;9.18;3.45;;;;;;;;;;5004996;28;20491;-72
2023/08/14 09:59:56;;;;;;;8.63;3.22;;;;;;;;;;5029058;28;20232;-71
2023/08/14 10:02:23;;;;;;;6.93;2.95;;;;;;;;;;5024874;28;20203;-72
2023/08/14 10:04:50;;;;;;;9.50;3.25;;;;;;;;;;5008629;28;20183;-72
2023/08/14 10:07:23;;;;;;;8.68;3.45;;;;;;;;;;5029409;28;20194;-72
2023/08/14 10:09:53;;;;;;;5.80;3.03;;;;;;;;;;5029640;28;20615;-72
2023/08/14 10:12:23;;;;;;;9.82;2.35;;;;;;;;;;5029766;28;20190;-71
2023/08/14 10:15:16;;;;;;;5.72;2.78;;;;;;;;;;5029323;28;20197;-71
2023/08/14 10:17:49;;;;;;;8.68;2.72;;;;;;;;;;5017595;28;20231;-71
2023/08/14 10:20:18;;;;;;;4.75;1.92;;;;;;;;;;5028596;28;20204;-72
2023/08/14 10:22:44;;;;;;;5.35;2.05;;;;;;;;;;5030469;28;20190;-72
2023/08/14 10:25:10;;;;;;;7.13;2.25;;;;;;;;;;5026804;28;20186;-70
2023/08/14 10:27:36;;;;;;;7.80;2.47;;;;;;;;;;5026429;28;20190;-70
2023/08/14 10:30:02;;;;;;;6.82;2.20;;;;;;;;;;5018143;28;20212;-73
2023/08/14 10:32:28;;;;;;;9.80;2.53;;;;;;;;;;5030936;28;20543;-72
2023/08/14 10:34:55;;;;;;;5.85;2.20;;;;;;;;;;5012920;28;20190;-72
2023/08/14 10:37:28;;;;;;;4.97;2.08;;;;;;;;;;5028167;28;20273;-73
2023/08/14 10:40:13;;;;;;;4.47;2.00;;;;;;;;;;5023364;28;20190;-72
2023/08/14 10:42:42;;;;;;;6.25;2.10;;;;;;;;;;5024598;28;20222;-73
2023/08/14 10:45:07;;;;;;;6.18;2.25;;;;;;;;;;5026343;28;20198;-72
2023/08/14 10:47:33;;;;;;;6.38;2.47;;;;;;;;;;5029400;28;20194;-75
2023/08/14 10:50:12;;;;;;;5.10;1.98;;;;;;;;;;5028363;28;20689;-72
2023/08/14 10:52:37;;;;;;;4.75;1.77;;;;;;;;;;5014555;28;20202;-72
2023/08/14 10:55:13;;;;;;;8.98;2.08;;;;;;;;;;5027400;28;20190;-73
2023/08/14 10:57:38;;;;;;;4.05;2.40;;;;;;;;;;5029978;28;20189;-71
2023/08/14 11:00:17;;;;;;;5.13;2.10;;;;;;;;;;5028777;28;20178;-71
2023/08/14 11:02:43;;;;;;;8.02;2.13;;;;;;;;;;5026805;28;20286;-72
2023/08/14 11:05:13;;;;;;;6.53;2.22;;;;;;;;;;5025783;28;20201;-72
2023/08/14 11:07:38;;;;;;;5.72;2.35;;;;;;;;;;5027051;28;20328;-72
2023/08/14 11:10:05;;;;;;;5.97;2.20;;;;;;;;;;4991290;28;20646;-72
2023/08/14 11:12:35;;;;;;;7.10;2.05;;;;;;;;;;5027840;28;20661;-72
2023/08/14 11:15:01;;;;;;;6.75;2.25;;;;;;;;;;5018103;28;20195;-72
2023/08/14 11:17:27;;;;;;;6.28;2.00;;;;;;;;;;5030284;28;20426;-70
2023/08/14 11:19:52;;;;;;;6.00;1.92;;;;;;;;;;5026689;28;20665;-72
2023/08/14 11:22:21;;;;;;;4.22;2.20;;;;;;;;;;5015123;28;20603;-73
2023/08/14 11:24:47;;;;;;;6.03;2.38;;;;;;;;;;5022741;28;20187;-72
2023/08/14 11:27:12;;;;;;;6.45;2.55;;;;;;;;;;5029679;28;20278;-72
2023/08/14 11:29:38;;;;;;;6.15;2.00;;;;;;;;;;5026891;28;20245;-72
2023/08/14 11:32:04;;;;;;;6.13;2.50;;;;;;;;;;5038000;28;20198;-72
2023/08/14 11:34:32;;;;;;;7.47;2.20;;;;;;;;;;5030315;28;20633;-72
2023/08/14 11:37:03;;;;;;;5.78;2.20;;;;;;;;;;5026088;28;20187;-73
2023/08/14 11:39:29;;;;;;;7.60;2.13;;;;;;;;;;5028534;28;20196;-70
2023/08/14 11:41:54;;;;;;;5.18;1.80;;;;;;;;;;5027849;28;20183;-72
2023/08/14 11:44:20;;;;;;;5.10;2.10;;;;;;;;;;5022177;28;20233;-72
2023/08/14 11:46:48;;;;;;;7.68;1.75;;;;;;;;;;5030587;28;20186;-73
2023/08/14 11:49:15;;;;;;;7.35;2.08;;;;;;;;;;5022812;28;20202;-72
2023/08/14 11:51:40;;;;;;;4.88;2.05;;;;;;;;;;5032241;28;20234;-73
2023/08/14 11:54:10;;;;;;;5.47;1.90;;;;;;;;;;5031450;28;20193;-72
2023/08/14 11:56:37;;;;;;;8.57;2.03;;;;;;;;;;5030151;28;20188;-71
2023/08/14 11:59:04;;;;;;;4.60;1.98;;;;;;;;;;5030668;28;20626;-70
2023/08/14 12:01:32;;;;;;;4.38;1.83;;;;;;;;;;5025883;28;20194;-71
2023/08/14 12:03:58;;;;;;;4.20;2.03;;;;;;;;;;5028822;28;20297;-71
2023/08/14 12:06:23;;;;;;;7.32;2.05;;;;;;;;;;5029559;28;20269;-72
2023/08/14 12:08:49;;;;;;;3.85;1.70;;;;;;;;;;5029702;28;20190;-71
2023/08/14 12:11:18;;;;;;;5.07;2.00;;;;;;;;;;5030195;28;20212;-72
2023/08/14 12:13:50;;;;;;;5.38;2.20;;;;;;;;;;5021517;28;20191;-72
2023/08/14 12:16:17;;;;;;;6.13;1.85;;;;;;;;;;5015273;28;20345;-72
2023/08/14 12:18:43;;;;;;;6.68;2.35;;;;;;;;;;5028898;28;20305;-73
2023/08/14 12:21:12;;;;;;;6.88;2.10;;;;;;;;;;5019947;28;20191;-73
2023/08/14 12:23:45;;;;;;;4.82;2.00;;;;;;;;;;5026182;28;20186;-72
2023/08/14 12:26:10;;;;;;;5.82;2.13;;;;;;;;;;5033286;28;20194;-72
2023/08/14 12:28:36;;;;;;;5.07;1.88;;;;;;;;;;5028134;28;20544;-72
2023/08/14 12:31:01;;;;;;;6.07;1.77;;;;;;;;;;5036892;28;20216;-72
2023/08/14 12:33:26;;;;;;;5.32;2.00;;;;;;;;;;5024894;28;20199;-72
2023/08/14 12:35:52;;;;;;;5.85;2.17;;;;;;;;;;5022388;28;20179;-72
2023/08/14 12:38:18;;;;;;;5.82;2.40;;;;;;;;;;5030153;28;20190;-72
2023/08/14 12:40:43;;;;;;;8.35;2.13;;;;;;;;;;5022813;28;20708;-72
2023/08/14 12:43:09;;;;;;;6.47;2.20;;;;;;;;;;5023634;28;20233;-71
2023/08/14 12:45:34;;;;;;;8.20;1.98;;;;;;;;;;5021852;28;20531;-72
2023/08/14 12:48:00;;;;;;;7.47;2.70;;;;;;;;;;5011340;28;20195;-72
2023/08/14 12:50:25;;;;;;;4.30;1.80;;;;;;;;;;5029050;28;20519;-72
2023/08/14 12:52:50;;;;;;;7.57;2.15;;;;;;;;;;5030374;28;20204;-73
2023/08/14 12:55:16;;;;;;;4.70;2.03;;;;;;;;;;5018128;28;20210;-72
2023/08/14 12:57:42;;;;;;;5.35;1.95;;;;;;;;;;5031066;28;20636;-72
2023/08/14 13:00:08;;;;;;;6.47;1.95;;;;;;;;;;5017578;28;20247;-71
2023/08/14 13:02:34;;;;;;;7.38;2.20;;;;;;;;;;5020585;28;20630;-71
2023/08/14 13:04:59;;;;;;;7.25;2.42;;;;;;;;;;5029435;28;20265;-72
2023/08/14 13:07:27;;;;;;;8.32;2.13;;;;;;;;;;5021202;28;20222;-71
2023/08/14 13:09:53;;;;;;;7.25;2.20;;;;;;;;;;5024693;28;20241;-71
2023/08/14 13:12:18;;;;;;;5.53;2.25;;;;;;;;;;5029810;28;20687;-71
2023/08/14 13:14:44;;;;;;;5.32;2.10;;;;;;;;;;5025917;28;20190;-71
2023/08/14 13:17:09;;;;;;;7.20;2.00;;;;;;;;;;5027103;28;20233;-71
2023/08/14 13:19:34;;;;;;;5.95;2.05;;;;;;;;;;5030465;28;20205;-72
2023/08/14 13:22:00;;;;;;;5.43;2.08;;;;;;;;;;5036686;28;20233;-72
2023/08/14 13:24:25;;;;;;;6.32;1.65;;;;;;;;;;5029951;28;20248;-72
2023/08/14 13:26:51;;;;;;;6.10;2.00;;;;;;;;;;5029914;28;20197;-72
2023/08/14 13:29:16;;;;;;;6.07;2.35;;;;;;;;;;5022272;28;20324;-73
2023/08/14 13:31:44;;;;;;;6.43;2.15;;;;;;;;;;5031179;28;20591;-71
2023/08/14 13:34:09;;;;;;;4.32;2.05;;;;;;;;;;5013406;28;20270;-71
2023/08/14 13:36:34;;;;;;;7.05;2.10;;;;;;;;;;5025801;28;20218;-72
2023/08/14 13:39:00;;;;;;;5.80;2.20;;;;;;;;;;5023630;28;20198;-74
2023/08/14 13:41:25;;;;;;;5.53;2.40;;;;;;;;;;5013611;28;20193;-71
2023/08/14 13:43:51;;;;;;;8.07;2.60;;;;;;;;;;5023336;28;20321;-70
2023/08/14 13:46:16;;;;;;;7.15;2.10;;;;;;;;;;5022018;28;20696;-71
2023/08/14 13:48:41;;;;;;;8.18;2.53;;;;;;;;;;5010582;28;20299;-71
2023/08/14 13:51:07;;;;;;;8.20;2.70;;;;;;;;;;5023580;28;20198;-72
2023/08/14 13:53:32;;;;;;;8.95;2.58;;;;;;;;;;5015856;28;20312;-71
2023/08/14 13:55:58;;;;;;;8.93;2.20;;;;;;;;;;5009762;28;20569;-71
2023/08/14 13:58:23;;;;;;;5.88;2.30;;;;;;;;;;5027892;28;20197;-70
2023/08/14 14:00:49;;;;;;;7.05;2.40;;;;;;;;;;5028972;28;20190;-71
2023/08/14 14:03:14;;;;;;;5.05;1.95;;;;;;;;;;5028518;28;20190;-71
2023/08/14 14:05:40;;;;;;;7.50;2.25;;;;;;;;;;5018409;28;20202;-71
2023/08/14 14:08:05;;;;;;;7.78;2.30;;;;;;;;;;5028030;28;20522;-71
2023/08/14 14:10:31;;;;;;;5.72;2.33;;;;;;;;;;5017710;28;20217;-71
2023/08/14 14:12:56;;;;;;;8.73;2.45;;;;;;;;;;5025610;28;20227;-71
2023/08/14 14:15:21;;;;;;;8.77;2.60;;;;;;;;;;5025918;28;20194;-71
2023/08/14 14:17:47;;;;;;;3.70;2.15;;;;;;;;;;5031741;28;20248;-71
2023/08/14 14:20:12;;;;;;;7.18;2.25;;;;;;;;;;5020034;28;20616;-71
2023/08/14 14:22:38;;;;;;;7.10;2.08;;;;;;;;;;5028140;28;20225;-71
2023/08/14 14:25:04;;;;;;;6.55;2.15;;;;;;;;;;5027492;28;20212;-72
2023/08/14 14:27:29;;;;;;;5.68;2.13;;;;;;;;;;5029306;28;20193;-71
2023/08/14 14:29:55;;;;;;;5.65;2.40;;;;;;;;;;5020564;28;20299;-71
2023/08/14 14:32:20;;;;;;;8.57;2.60;;;;;;;;;;5033964;28;20198;-71